Time;durP1;ratioP1;P1;durP2;ratioP2;P2;SDS_P1;SDS_P2;PMS_P1;PMS_P2;Temp;Humidity;BMP_temperature;BMP_pressure;BME280_temperature;BME280_humidity;BME280_pressure;Samples;Min_cycle;Max_cycle;Signal;HPM_P1;HPM_P2
2020/12/15 00:00:36;;;;;;;14.82;6.95;;;5.90;99.90;;;;;;5000727;28;20053;-82
2020/12/15 00:03:03;;;;;;;13.15;5.53;;;6.00;99.90;;;;;;4973100;28;20065;-82
2020/12/15 00:05:28;;;;;;;11.23;4.82;;;6.00;99.90;;;;;;4972816;28;20034;-83
2020/12/15 00:07:54;;;;;;;10.43;5.10;;;6.10;99.90;;;;;;4956968;28;20195;-82
2020/12/15 00:10:19;;;;;;;10.25;4.70;;;6.10;99.90;;;;;;4979683;28;20555;-83
2020/12/15 00:12:45;;;;;;;9.13;4.60;;;6.20;99.90;;;;;;4955440;28;20594;-82
2020/12/15 00:15:11;;;;;;;8.40;4.53;;;6.30;99.90;;;;;;4997271;28;20053;-83
2020/12/15 00:17:36;;;;;;;10.77;4.38;;;6.30;99.90;;;;;;4981331;28;20057;-81
2020/12/15 00:20:02;;;;;;;10.57;4.68;;;6.30;99.90;;;;;;5004440;28;20048;-82
2020/12/15 00:22:28;;;;;;;8.55;4.22;;;6.30;99.90;;;;;;5000973;28;20038;-82
2020/12/15 00:24:54;;;;;;;9.63;4.35;;;6.30;99.90;;;;;;5000745;28;20057;-82
2020/12/15 00:27:19;;;;;;;9.35;4.38;;;6.30;99.90;;;;;;4975342;28;20605;-82
2020/12/15 00:29:45;;;;;;;8.60;4.07;;;6.30;99.90;;;;;;4987516;28;20063;-82
2020/12/15 00:32:10;;;;;;;7.88;3.45;;;6.40;99.90;;;;;;4989360;28;20037;-82
2020/12/15 00:34:36;;;;;;;6.85;4.25;;;6.40;99.90;;;;;;4971396;28;20069;-80
2020/12/15 00:37:02;;;;;;;6.82;3.70;;;6.40;99.90;;;;;;4972100;28;20104;-81
2020/12/15 00:39:27;;;;;;;7.32;3.67;;;6.50;99.90;;;;;;4995859;28;20089;-81
2020/12/15 00:41:53;;;;;;;7.50;3.75;;;6.60;99.90;;;;;;4973572;28;20045;-81
2020/12/15 00:44:18;;;;;;;10.07;4.25;;;6.70;99.90;;;;;;4986618;28;20049;-83
2020/12/15 00:46:49;;;;;;;7.63;3.53;;;6.70;99.90;;;;;;5001913;28;20046;-83
2020/12/15 00:49:14;;;;;;;7.57;3.97;;;6.80;99.90;;;;;;4992024;28;20046;-83
2020/12/15 00:51:40;;;;;;;7.93;3.58;;;6.70;99.90;;;;;;4998877;28;20108;-83
2020/12/15 00:54:05;;;;;;;6.93;3.60;;;6.80;99.90;;;;;;4985443;28;20059;-82
2020/12/15 00:56:31;;;;;;;14.18;3.72;;;6.90;99.90;;;;;;4987148;28;20037;-82
2020/12/15 00:58:57;;;;;;;9.00;3.70;;;7.00;98.70;;;;;;4992293;28;20038;-82
2020/12/15 01:01:22;;;;;;;8.07;3.85;;;7.10;98.10;;;;;;4964560;28;20107;-82
2020/12/15 01:03:48;;;;;;;9.00;3.78;;;7.10;96.90;;;;;;4960301;28;20079;-81
2020/12/15 01:06:13;;;;;;;8.68;3.92;;;7.10;96.10;;;;;;4962389;28;20092;-83
2020/12/15 01:08:39;;;;;;;7.30;3.65;;;7.20;95.30;;;;;;4973835;28;20038;-82
2020/12/15 01:11:05;;;;;;;5.97;3.30;;;7.20;95.00;;;;;;4978032;28;20537;-83
2020/12/15 01:13:30;;;;;;;8.02;3.72;;;7.30;94.60;;;;;;4956946;28;20513;-80
2020/12/15 01:15:56;;;;;;;10.00;4.78;;;7.30;93.20;;;;;;4968111;28;20120;-83
2020/12/15 01:18:21;;;;;;;9.75;4.00;;;7.30;93.40;;;;;;4988461;28;20798;-82
2020/12/15 01:20:47;;;;;;;7.47;3.83;;;7.30;93.50;;;;;;4967218;28;20435;-82
2020/12/15 01:23:12;;;;;;;8.85;3.55;;;7.30;93.00;;;;;;4987162;28;20029;-82
2020/12/15 01:25:38;;;;;;;6.60;2.80;;;7.30;92.40;;;;;;4967219;28;20415;-82
2020/12/15 01:28:03;;;;;;;7.82;2.78;;;7.40;92.10;;;;;;4972523;28;20052;-82
2020/12/15 01:30:29;;;;;;;7.07;3.53;;;7.40;91.30;;;;;;4977445;28;20045;-81
2020/12/15 01:32:55;;;;;;;5.88;3.03;;;7.40;91.50;;;;;;4974470;28;20037;-82
2020/12/15 01:35:21;;;;;;;9.35;3.28;;;7.40;91.10;;;;;;4973827;28;20041;-82
2020/12/15 01:37:47;;;;;;;7.20;3.72;;;7.40;91.20;;;;;;4969422;28;20038;-81
2020/12/15 01:40:13;;;;;;;8.55;3.63;;;7.50;90.70;;;;;;4983180;28;20077;-83
2020/12/15 01:42:39;;;;;;;7.00;3.38;;;7.50;90.40;;;;;;4984977;28;20042;-82
2020/12/15 01:45:06;;;;;;;6.30;3.08;;;7.60;90.80;;;;;;4980014;28;20129;-82
2020/12/15 01:47:33;;;;;;;7.55;3.30;;;7.50;90.60;;;;;;5030343;28;20056;-82
2020/12/15 01:49:59;;;;;;;6.90;3.35;;;7.50;90.10;;;;;;4995835;28;20469;-82
2020/12/15 01:52:28;;;;;;;6.00;3.05;;;7.50;89.60;;;;;;4982007;28;20048;-82
2020/12/15 01:54:54;;;;;;;5.15;3.00;;;7.60;88.40;;;;;;4984313;28;20144;-81
2020/12/15 01:57:20;;;;;;;6.63;3.33;;;7.60;86.20;;;;;;4999616;28;20048;-81
2020/12/15 01:59:46;;;;;;;7.60;3.35;;;7.70;87.40;;;;;;4985483;28;20462;-80
2020/12/15 02:02:11;;;;;;;7.90;3.22;;;7.60;88.00;;;;;;4985291;28;20117;-81
2020/12/15 02:04:37;;;;;;;5.65;2.90;;;7.60;87.60;;;;;;4977189;28;20048;-81
2020/12/15 02:07:03;;;;;;;9.05;3.42;;;7.60;88.00;;;;;;5011060;28;20150;-81
2020/12/15 02:09:29;;;;;;;10.98;3.25;;;7.60;88.20;;;;;;4980539;28;20056;-81
2020/12/15 02:11:54;;;;;;;6.70;2.97;;;7.60;89.60;;;;;;5003605;28;20061;-81
2020/12/15 02:14:21;;;;;;;9.35;3.45;;;7.50;89.70;;;;;;4981291;28;20160;-82
2020/12/15 02:16:50;;;;;;;8.32;3.45;;;7.50;89.60;;;;;;4957970;28;20409;-82
2020/12/15 02:19:17;;;;;;;8.43;3.55;;;7.50;89.40;;;;;;5001862;28;20088;-80
2020/12/15 02:22:01;;;;;;;7.57;3.70;;;7.50;90.00;;;;;;5012585;28;20037;-82
2020/12/15 02:24:28;;;;;;;7.25;3.20;;;7.50;89.30;;;;;;4992051;28;20493;-82
2020/12/15 02:26:54;;;;;;;6.63;3.45;;;7.50;89.10;;;;;;5014546;28;20041;-81
2020/12/15 02:29:19;;;;;;;5.70;3.20;;;7.60;89.10;;;;;;4959070;28;20419;-81
2020/12/15 02:31:45;;;;;;;9.15;3.47;;;7.50;90.10;;;;;;4981419;28;20068;-81
2020/12/15 02:34:11;;;;;;;7.20;3.22;;;7.50;90.10;;;;;;4987871;28;20061;-81
2020/12/15 02:36:37;;;;;;;9.73;3.70;;;7.50;90.30;;;;;;4985195;28;20450;-81
2020/12/15 02:39:14;;;;;;;6.38;2.67;;;7.50;90.30;;;;;;4999337;28;20768;-81
2020/12/15 02:41:39;;;;;;;7.03;3.40;;;7.50;90.40;;;;;;4999555;28;20121;-81
2020/12/15 02:44:06;;;;;;;10.02;4.93;;;7.50;90.40;;;;;;4986664;28;20070;-81
2020/12/15 02:46:32;;;;;;;12.00;6.25;;;7.50;91.10;;;;;;5005147;28;20489;-81
2020/12/15 02:48:58;;;;;;;12.23;5.43;;;7.50;91.40;;;;;;5004913;28;20053;-81
2020/12/15 02:51:24;;;;;;;17.77;6.45;;;7.50;92.20;;;;;;5015580;28;20046;-81
2020/12/15 02:53:50;;;;;;;10.05;5.22;;;7.40;93.50;;;;;;4981982;28;20030;-81
2020/12/15 02:56:23;;;;;;;14.13;6.32;;;7.40;93.70;;;;;;5006115;28;20155;-82
2020/12/15 02:58:49;;;;;;;14.88;6.45;;;7.40;94.00;;;;;;4975706;28;20128;-80
2020/12/15 03:01:16;;;;;;;14.43;6.20;;;7.30;94.60;;;;;;4984981;28;20089;-81
2020/12/15 03:03:41;;;;;;;13.70;6.75;;;7.30;95.60;;;;;;4970779;28;20628;-82
2020/12/15 03:06:07;;;;;;;12.85;6.90;;;7.20;95.60;;;;;;4970934;28;20026;-80
2020/12/15 03:08:33;;;;;;;13.68;6.68;;;7.20;96.10;;;;;;4991317;28;20069;-81
2020/12/15 03:11:00;;;;;;;15.48;6.47;;;7.10;97.80;;;;;;4981785;28;20034;-81
2020/12/15 03:13:25;;;;;;;16.60;6.25;;;7.10;97.90;;;;;;4975512;28;20048;-81
2020/12/15 03:15:51;;;;;;;14.57;6.15;;;7.10;97.70;;;;;;5002872;28;20084;-81
2020/12/15 03:18:17;;;;;;;11.68;5.88;;;7.10;96.90;;;;;;4995817;28;20049;-81
2020/12/15 03:20:47;;;;;;;17.13;7.28;;;7.10;96.90;;;;;;5019488;28;20034;-81
2020/12/15 03:23:13;;;;;;;14.75;7.40;;;7.10;97.20;;;;;;4963693;28;20111;-82
2020/12/15 03:25:39;;;;;;;18.30;7.20;;;7.00;98.20;;;;;;5004618;28;20128;-82
2020/12/15 03:28:05;;;;;;;15.23;7.47;;;6.80;98.40;;;;;;4968501;28;20042;-81
2020/12/15 03:30:31;;;;;;;17.85;7.47;;;6.80;98.80;;;;;;5016922;28;20680;-80
2020/12/15 03:32:57;;;;;;;19.38;7.55;;;6.70;99.10;;;;;;4996386;28;20052;-81
2020/12/15 03:35:22;;;;;;;14.23;7.18;;;6.70;99.90;;;;;;4990965;28;20046;-81
2020/12/15 03:37:48;;;;;;;16.30;7.28;;;6.60;99.90;;;;;;5015844;28;20045;-81
2020/12/15 03:40:14;;;;;;;13.30;6.72;;;6.70;99.90;;;;;;4993737;28;20038;-81
2020/12/15 03:42:39;;;;;;;17.13;6.40;;;6.70;99.90;;;;;;5019934;28;20093;-81
2020/12/15 03:45:05;;;;;;;12.52;6.72;;;6.70;99.90;;;;;;4998770;28;20049;-81
2020/12/15 03:47:31;;;;;;;15.35;7.13;;;6.80;99.90;;;;;;5023327;28;20021;-81
2020/12/15 03:49:56;;;;;;;20.73;7.85;;;6.80;99.90;;;;;;5003587;28;20053;-81
2020/12/15 03:52:22;;;;;;;13.07;7.05;;;6.80;99.90;;;;;;5041587;28;20512;-83
2020/12/15 03:54:47;;;;;;;15.13;7.00;;;6.80;99.90;;;;;;5010040;28;20038;-82
2020/12/15 03:57:13;;;;;;;19.60;7.30;;;6.80;99.90;;;;;;5019591;28;20112;-82
2020/12/15 03:59:38;;;;;;;15.40;6.45;;;6.80;99.90;;;;;;5023737;28;20512;-82
2020/12/15 04:02:04;;;;;;;12.82;7.00;;;6.80;99.90;;;;;;5007657;28;20056;-83
2020/12/15 04:04:29;;;;;;;14.07;7.20;;;6.90;99.90;;;;;;5016557;28;20017;-83
2020/12/15 04:06:55;;;;;;;14.55;6.80;;;6.80;99.90;;;;;;5009940;28;20048;-83
2020/12/15 04:09:20;;;;;;;14.38;7.30;;;6.80;99.90;;;;;;5033430;28;20021;-83
2020/12/15 04:11:46;;;;;;;14.07;7.43;;;6.80;99.90;;;;;;5001873;28;20428;-83
2020/12/15 04:14:11;;;;;;;17.38;6.53;;;6.80;99.90;;;;;;5027467;28;20021;-83
2020/12/15 04:16:37;;;;;;;13.35;5.40;;;6.80;99.90;;;;;;4984402;28;20044;-82
2020/12/15 04:19:02;;;;;;;12.95;6.22;;;6.80;99.90;;;;;;5029318;28;20033;-82
2020/12/15 04:21:28;;;;;;;12.13;6.38;;;6.80;99.90;;;;;;5023415;28;20061;-82
2020/12/15 04:23:54;;;;;;;11.70;6.78;;;6.90;99.90;;;;;;5029693;28;20016;-82
2020/12/15 04:26:20;;;;;;;12.98;6.30;;;6.80;99.90;;;;;;4998424;28;20396;-82
2020/12/15 04:28:45;;;;;;;12.70;5.47;;;6.80;99.90;;;;;;5026834;28;20079;-81
2020/12/15 04:31:11;;;;;;;7.95;4.22;;;6.80;99.90;;;;;;5029053;28;20025;-82
2020/12/15 04:33:36;;;;;;;8.27;3.42;;;6.90;99.90;;;;;;5024598;28;20104;-82
2020/12/15 04:36:02;;;;;;;9.00;3.63;;;7.00;99.90;;;;;;4987396;28;20048;-82
2020/12/15 04:38:27;;;;;;;19.15;4.90;;;7.00;99.90;;;;;;5025568;28;20037;-82
2020/12/15 04:40:53;;;;;;;8.90;3.92;;;7.10;98.10;;;;;;5004418;28;20088;-81
2020/12/15 04:43:21;;;;;;;11.68;3.90;;;7.10;98.00;;;;;;5006338;28;20187;-82
2020/12/15 04:45:47;;;;;;;12.48;4.72;;;7.10;97.90;;;;;;4999422;28;20132;-82
2020/12/15 04:48:21;;;;;;;6.82;3.88;;;7.10;98.20;;;;;;4998927;28;20044;-82
2020/12/15 04:50:49;;;;;;;7.60;3.42;;;7.10;99.00;;;;;;5028749;28;20026;-81
2020/12/15 04:53:22;;;;;;;7.13;3.70;;;7.00;99.90;;;;;;5005118;28;20048;-82
2020/12/15 04:55:49;;;;;;;14.18;4.38;;;7.00;98.90;;;;;;5013102;28;20033;-81
2020/12/15 04:58:19;;;;;;;13.73;3.38;;;7.10;98.00;;;;;;4999605;28;20050;-80
2020/12/15 05:00:45;;;;;;;7.22;3.67;;;7.20;95.90;;;;;;5012280;28;20029;-82
2020/12/15 05:03:14;;;;;;;10.23;3.90;;;7.20;96.40;;;;;;5009015;28;20058;-82
2020/12/15 05:05:40;;;;;;;6.90;3.55;;;7.20;95.30;;;;;;4983429;28;20048;-81
2020/12/15 05:08:06;;;;;;;5.88;2.88;;;7.20;96.10;;;;;;5009914;28;20030;-80
2020/12/15 05:10:31;;;;;;;12.18;3.28;;;7.20;96.60;;;;;;4994214;28;20048;-80
2020/12/15 05:12:57;;;;;;;15.15;3.55;;;7.20;96.40;;;;;;4999294;28;20052;-81
2020/12/15 05:15:23;;;;;;;11.88;4.38;;;7.30;95.30;;;;;;5034151;28;20086;-82
2020/12/15 05:17:48;;;;;;;8.98;4.10;;;7.20;95.50;;;;;;4997767;28;20401;-81
2020/12/15 05:20:25;;;;;;;12.95;5.07;;;7.20;96.30;;;;;;5012919;28;20042;-81
2020/12/15 05:22:51;;;;;;;14.38;4.63;;;7.20;96.50;;;;;;5000366;28;20052;-81
2020/12/15 05:25:31;;;;;;;17.55;5.30;;;7.20;96.10;;;;;;5019546;28;20939;-81
2020/12/15 05:28:01;;;;;;;12.25;5.72;;;7.20;96.60;;;;;;5014319;28;20052;-79
2020/12/15 05:30:30;;;;;;;13.85;5.50;;;7.20;97.20;;;;;;5022437;28;20037;-81
2020/12/15 05:32:58;;;;;;;12.35;5.55;;;7.10;97.40;;;;;;5019931;28;20034;-82
2020/12/15 05:35:30;;;;;;;16.55;6.30;;;7.20;97.40;;;;;;5019676;28;20103;-79
2020/12/15 05:37:57;;;;;;;16.45;6.10;;;7.20;97.50;;;;;;5021354;28;20046;-81
2020/12/15 05:40:22;;;;;;;14.32;5.32;;;7.10;97.70;;;;;;5021565;28;20568;-81
2020/12/15 05:42:56;;;;;;;20.67;6.30;;;7.10;98.70;;;;;;5004662;28;20088;-80
2020/12/15 05:45:22;;;;;;;13.05;5.93;;;7.00;99.50;;;;;;5022423;28;20045;-80
2020/12/15 05:47:49;;;;;;;11.52;5.85;;;7.10;99.30;;;;;;5020510;28;20081;-80
2020/12/15 05:50:20;;;;;;;12.73;5.32;;;7.10;99.80;;;;;;5023651;28;20045;-81
2020/12/15 05:53:00;;;;;;;18.27;6.05;;;7.10;99.90;;;;;;5024118;28;20116;-80
2020/12/15 05:55:27;;;;;;;10.50;5.50;;;7.00;99.90;;;;;;5025582;28;20046;-80
2020/12/15 05:57:53;;;;;;;10.55;5.82;;;7.10;99.80;;;;;;5021912;28;20544;-79
2020/12/15 06:00:19;;;;;;;11.20;5.22;;;7.10;99.70;;;;;;5018590;28;20076;-78
2020/12/15 06:03:15;;;;;;;13.05;5.25;;;7.10;99.80;;;;;;5018597;28;20052;-78
2020/12/15 06:05:41;;;;;;;13.52;5.80;;;7.10;99.90;;;;;;5014310;28;20516;-80
2020/12/15 06:08:07;;;;;;;17.20;5.88;;;7.10;99.50;;;;;;5014955;28;20046;-81
2020/12/15 06:10:34;;;;;;;14.70;6.82;;;7.20;99.30;;;;;;5017864;28;20037;-81
2020/12/15 06:13:50;;;;;;;13.43;6.22;;;7.20;99.40;;;;;;5026869;28;20064;-80
2020/12/15 06:16:15;;;;;;;;;;;7.20;99.30;;;;;;5006868;28;20148;-79
2020/12/15 06:18:41;;;;;;;13.68;6.60;;;7.20;99.50;;;;;;5015330;28;20012;-80
2020/12/15 06:21:11;;;;;;;14.75;6.80;;;7.10;99.40;;;;;;5019451;28;20030;-81
2020/12/15 06:23:36;;;;;;;20.15;7.72;;;7.20;99.70;;;;;;5023875;28;20034;-80
2020/12/15 06:26:02;;;;;;;12.35;6.25;;;7.20;99.60;;;;;;5017279;28;20041;-81
2020/12/15 06:28:32;;;;;;;17.63;7.15;;;7.20;99.10;;;;;;4993010;28;20148;-81
2020/12/15 06:30:59;;;;;;;13.48;6.35;;;7.30;98.80;;;;;;5019354;28;20037;-80
2020/12/15 06:33:33;;;;;;;14.55;6.40;;;7.20;98.70;;;;;;5021430;28;20033;-80
2020/12/15 06:35:59;;;;;;;17.55;6.78;;;7.20;99.40;;;;;;5039123;28;20047;-80
2020/12/15 06:38:24;;;;;;;24.50;6.88;;;7.30;98.70;;;;;;5034178;28;20057;-79
2020/12/15 06:40:50;;;;;;;17.95;8.63;;;7.20;99.50;;;;;;5038722;28;20026;-79
2020/12/15 06:43:30;;;;;;;12.85;6.53;;;7.30;99.40;;;;;;5034724;28;20121;-80
2020/12/15 06:46:10;;;;;;;15.80;6.53;;;7.20;99.50;;;;;;5035926;28;20160;-79
2020/12/15 06:48:37;;;;;;;15.18;6.78;;;7.30;99.40;;;;;;5021094;28;20120;-79
2020/12/15 06:51:03;;;;;;;14.82;6.18;;;7.20;99.50;;;;;;5030746;28;20034;-80
2020/12/15 06:53:28;;;;;;;16.95;7.53;;;7.30;99.30;;;;;;5037343;28;20088;-80
2020/12/15 06:56:03;;;;;;;16.95;6.85;;;7.30;99.70;;;;;;5035660;28;20041;-79
2020/12/15 06:58:29;;;;;;;;;;;7.20;99.70;;;;;;5021608;28;20122;-79
2020/12/15 07:00:56;;;;;;;16.73;6.43;;;7.20;99.90;;;;;;5024198;28;19945;-80
2020/12/15 07:03:54;;;;;;;15.38;6.05;;;7.20;99.90;;;;;;5035238;28;20025;-79
2020/12/15 07:06:19;;;;;;;19.35;6.25;;;7.20;99.90;;;;;;5015405;28;20030;-79
2020/12/15 07:09:00;;;;;;;17.00;7.20;;;7.30;99.90;;;;;;5024412;28;20040;-80
2020/12/15 07:11:26;;;;;;;15.70;6.63;;;7.30;99.80;;;;;;5022383;28;20030;-82
2020/12/15 07:13:57;;;;;;;32.22;7.80;;;7.30;99.90;;;;;;5030460;28;20038;-81
2020/12/15 07:16:23;;;;;;;22.08;6.90;;;7.30;99.80;;;;;;5020843;28;20034;-78
2020/12/15 07:18:50;;;;;;;21.80;6.60;;;7.30;99.70;;;;;;5028253;28;20037;-82
2020/12/15 07:21:16;;;;;;;17.00;6.82;;;7.30;99.60;;;;;;5006788;28;20033;-79
2020/12/15 07:23:42;;;;;;;14.00;7.32;;;7.40;99.40;;;;;;5031500;28;20033;-80
2020/12/15 07:26:15;;;;;;;22.35;6.55;;;7.40;99.40;;;;;;5029794;28;20039;-82
2020/12/15 07:28:46;;;;;;;17.42;6.78;;;7.40;99.00;;;;;;5003711;28;20049;-82
2020/12/15 07:31:12;;;;;;;21.75;6.65;;;7.40;99.40;;;;;;5022229;28;20030;-82
2020/12/15 07:33:41;;;;;;;16.73;6.18;;;7.30;99.90;;;;;;5024927;28;20970;-81
2020/12/15 07:36:16;;;;;;;13.45;6.07;;;7.30;99.90;;;;;;5021875;28;20053;-82
2020/12/15 07:38:44;;;;;;;18.83;6.03;;;7.40;99.90;;;;;;5019027;28;20217;-82
2020/12/15 07:41:16;;;;;;;16.48;6.10;;;7.40;99.90;;;;;;5009527;28;20040;-81
2020/12/15 07:43:55;;;;;;;16.17;5.78;;;7.40;99.90;;;;;;5022018;28;20041;-82
2020/12/15 07:46:23;;;;;;;14.40;6.20;;;7.40;99.90;;;;;;5016487;28;20091;-81
2020/12/15 07:48:52;;;;;;;11.98;5.38;;;7.40;99.90;;;;;;5018991;28;20038;-79
2020/12/15 07:51:18;;;;;;;22.25;5.32;;;7.40;99.90;;;;;;5021596;28;20033;-80
2020/12/15 07:53:54;;;;;;;25.15;7.40;;;7.50;99.80;;;;;;5023210;28;20036;-80
2020/12/15 07:56:20;;;;;;;31.85;7.90;;;7.60;99.60;;;;;;5019542;28;20576;-80
2020/12/15 07:58:50;;;;;;;15.55;7.10;;;7.60;99.30;;;;;;5020951;28;20048;-79
2020/12/15 08:01:29;;;;;;;19.95;7.15;;;7.70;99.40;;;;;;4993273;28;20038;-80
2020/12/15 08:04:07;;;;;;;23.70;6.57;;;7.50;99.70;;;;;;5013413;28;20057;-80
2020/12/15 08:06:34;;;;;;;18.85;6.65;;;7.50;99.90;;;;;;5016517;28;20663;-80
2020/12/15 08:09:00;;;;;;;29.27;6.60;;;7.50;99.90;;;;;;5013820;28;20038;-80
2020/12/15 08:11:27;;;;;;;18.95;6.82;;;7.60;99.90;;;;;;5018323;28;20052;-80
2020/12/15 08:13:53;;;;;;;16.50;6.15;;;7.70;99.90;;;;;;5026746;28;20069;-79
2020/12/15 08:16:19;;;;;;;15.27;6.18;;;7.70;99.90;;;;;;5003139;28;20638;-80
2020/12/15 08:18:46;;;;;;;20.38;7.35;;;7.70;99.90;;;;;;5022142;28;20455;-79
2020/12/15 08:21:15;;;;;;;16.58;7.05;;;7.80;99.90;;;;;;4999056;28;20599;-80
2020/12/15 08:23:50;;;;;;;19.38;6.28;;;7.80;99.90;;;;;;5017232;28;20377;-80
2020/12/15 08:26:17;;;;;;;12.82;5.95;;;7.80;99.90;;;;;;5026387;28;20381;-80
2020/12/15 08:28:44;;;;;;;17.13;5.75;;;7.80;99.90;;;;;;5016791;28;20048;-80
2020/12/15 08:31:10;;;;;;;23.05;6.85;;;7.90;99.90;;;;;;5031176;28;20026;-79
2020/12/15 08:33:36;;;;;;;13.82;5.43;;;7.90;99.90;;;;;;5040217;28;20041;-80
2020/12/15 08:36:02;;;;;;;16.35;5.53;;;7.90;99.90;;;;;;5011528;28;20106;-80
2020/12/15 08:38:28;;;;;;;16.10;5.45;;;7.90;99.90;;;;;;5027790;28;20057;-79
2020/12/15 08:40:58;;;;;;;13.07;5.88;;;8.00;99.60;;;;;;5034316;28;20034;-79
2020/12/15 08:43:24;;;;;;;23.05;7.63;;;8.00;99.00;;;;;;5032836;28;20049;-80
2020/12/15 08:45:51;;;;;;;21.05;7.47;;;8.00;98.70;;;;;;5016438;28;20030;-80
2020/12/15 08:48:22;;;;;;;24.40;7.65;;;8.10;98.80;;;;;;5002738;28;20097;-80
2020/12/15 08:50:48;;;;;;;20.02;6.78;;;8.10;99.30;;;;;;5016258;28;20038;-80
2020/12/15 08:53:15;;;;;;;20.88;7.25;;;8.10;99.30;;;;;;5016481;28;20029;-80
2020/12/15 08:55:44;;;;;;;11.10;5.25;;;8.10;98.80;;;;;;5022713;28;20029;-80
2020/12/15 08:58:11;;;;;;;13.40;4.95;;;8.10;98.20;;;;;;5020721;28;20053;-80
2020/12/15 09:00:39;;;;;;;18.55;5.28;;;8.20;97.90;;;;;;5018730;28;20148;-80
2020/12/15 09:03:15;;;;;;;19.38;6.68;;;8.20;97.90;;;;;;5015762;28;20041;-79
2020/12/15 09:05:46;;;;;;;14.82;6.60;;;8.20;98.40;;;;;;5020663;28;20436;-79
2020/12/15 09:08:12;;;;;;;16.00;7.38;;;8.20;98.40;;;;;;5003521;28;20051;-80
2020/12/15 09:10:37;;;;;;;17.70;7.85;;;8.20;98.40;;;;;;4997773;28;20030;-80
2020/12/15 09:13:07;;;;;;;20.17;7.32;;;8.20;98.80;;;;;;5014935;28;20095;-80
2020/12/15 09:15:33;;;;;;;20.92;6.78;;;8.30;99.40;;;;;;5019172;28;20132;-80
2020/12/15 09:17:58;;;;;;;22.13;6.10;;;8.30;99.20;;;;;;5024828;28;20040;-79
2020/12/15 09:20:26;;;;;;;19.20;5.22;;;8.20;99.50;;;;;;5015263;28;20125;-79
2020/12/15 09:22:52;;;;;;;12.10;4.57;;;8.30;99.70;;;;;;5016817;28;20038;-80
2020/12/15 09:25:18;;;;;;;14.75;4.93;;;8.30;99.90;;;;;;5005495;28;20037;-80
2020/12/15 09:27:45;;;;;;;9.93;4.30;;;8.40;99.60;;;;;;5018048;28;20049;-79
2020/12/15 09:30:12;;;;;;;10.98;4.30;;;8.50;98.70;;;;;;5016412;28;20044;-83
2020/12/15 09:32:38;;;;;;;10.23;4.28;;;8.50;98.10;;;;;;5012831;28;20575;-79
2020/12/15 09:35:04;;;;;;;8.57;4.28;;;8.50;97.80;;;;;;5025803;28;20088;-79
2020/12/15 09:37:30;;;;;;;20.27;5.35;;;8.60;96.80;;;;;;5003112;28;20107;-80
2020/12/15 09:39:57;;;;;;;19.55;7.38;;;8.60;96.70;;;;;;5024553;28;20140;-81
2020/12/15 09:42:24;;;;;;;18.65;6.50;;;8.60;97.00;;;;;;5018803;28;20030;-80
2020/12/15 09:44:50;;;;;;;19.65;6.45;;;8.70;96.90;;;;;;5022618;28;20045;-80
2020/12/15 09:47:16;;;;;;;18.45;6.97;;;8.70;96.60;;;;;;5000437;28;20046;-81
2020/12/15 09:49:41;;;;;;;18.38;6.93;;;8.70;96.40;;;;;;4983340;28;20045;-80
2020/12/15 09:52:07;;;;;;;16.17;6.60;;;8.70;96.60;;;;;;4999538;28;20495;-81
2020/12/15 09:54:33;;;;;;;20.85;6.82;;;8.60;96.30;;;;;;5000708;28;20497;-80
2020/12/15 09:56:58;;;;;;;14.25;7.03;;;8.60;96.20;;;;;;5001722;28;20050;-81
2020/12/15 09:59:24;;;;;;;13.82;6.70;;;8.60;96.00;;;;;;4998515;28;20793;-80
2020/12/15 10:01:49;;;;;;;17.67;6.95;;;8.70;95.80;;;;;;4999699;28;20062;-80
2020/12/15 10:04:15;;;;;;;22.42;6.95;;;8.70;95.80;;;;;;5005507;28;20141;-80
2020/12/15 10:06:42;;;;;;;14.95;7.68;;;8.70;95.60;;;;;;5000629;28;20457;-81
2020/12/15 10:09:08;;;;;;;21.25;7.30;;;8.80;95.60;;;;;;4999171;28;20511;-81
2020/12/15 10:11:34;;;;;;;17.90;7.65;;;8.80;96.00;;;;;;4979945;28;20038;-81
2020/12/15 10:14:00;;;;;;;19.52;7.57;;;8.80;96.10;;;;;;5003172;28;20894;-80
2020/12/15 10:16:26;;;;;;;21.98;7.95;;;8.80;95.80;;;;;;5000948;28;20053;-79
2020/12/15 10:18:52;;;;;;;18.35;8.13;;;8.80;96.00;;;;;;5013764;28;20172;-79
2020/12/15 10:21:18;;;;;;;21.25;7.47;;;8.80;96.10;;;;;;4997690;28;20018;-79
2020/12/15 10:23:47;;;;;;;20.58;7.40;;;8.90;96.00;;;;;;4986832;28;20039;-79
2020/12/15 10:26:13;;;;;;;30.92;7.63;;;9.00;95.60;;;;;;4990604;28;20030;-80
2020/12/15 10:28:38;;;;;;;13.93;5.93;;;9.10;95.20;;;;;;5013828;28;20056;-80
2020/12/15 10:31:04;;;;;;;18.48;7.13;;;9.20;94.90;;;;;;5003487;28;20590;-80
2020/12/15 10:33:29;;;;;;;27.83;7.22;;;9.30;94.40;;;;;;5004153;28;20026;-79
2020/12/15 10:35:55;;;;;;;22.05;7.82;;;9.30;94.20;;;;;;5006997;28;20081;-81
2020/12/15 10:38:21;;;;;;;22.83;7.15;;;9.50;94.50;;;;;;5000299;28;20483;-80
2020/12/15 10:40:47;;;;;;;17.67;6.70;;;9.60;93.70;;;;;;4996430;28;20069;-80
2020/12/15 10:43:13;;;;;;;25.25;8.48;;;9.70;92.50;;;;;;4997571;28;20168;-80
2020/12/15 10:45:39;;;;;;;21.38;7.40;;;9.80;92.20;;;;;;4991577;28;20038;-80
2020/12/15 10:48:04;;;;;;;26.25;7.40;;;9.70;92.60;;;;;;4994118;28;20084;-80
2020/12/15 10:50:30;;;;;;;9.93;5.00;;;9.70;92.70;;;;;;4975229;28;20552;-80
2020/12/15 10:52:56;;;;;;;10.38;5.45;;;9.70;91.00;;;;;;5001447;28;20049;-80
2020/12/15 10:55:22;;;;;;;15.85;5.32;;;9.80;91.10;;;;;;5001291;28;20089;-79
2020/12/15 10:57:48;;;;;;;15.05;5.85;;;9.80;91.00;;;;;;4996447;28;20657;-79
2020/12/15 11:00:13;;;;;;;11.77;5.20;;;9.80;91.30;;;;;;4995700;28;20048;-79
2020/12/15 11:02:39;;;;;;;9.65;4.97;;;9.90;91.40;;;;;;4979089;28;20061;-79
2020/12/15 11:05:05;;;;;;;11.13;5.50;;;9.80;91.10;;;;;;4992196;28;20039;-79
2020/12/15 11:07:30;;;;;;;11.68;4.80;;;9.90;91.50;;;;;;4994223;28;20035;-79
2020/12/15 11:09:56;;;;;;;16.50;4.47;;;9.90;91.30;;;;;;4988916;28;20038;-79
2020/12/15 11:12:21;;;;;;;12.25;5.10;;;10.00;90.60;;;;;;4992200;28;20044;-79
2020/12/15 11:14:47;;;;;;;11.45;5.07;;;10.00;91.30;;;;;;4999483;28;20057;-79
2020/12/15 11:17:12;;;;;;;10.48;4.32;;;10.00;92.20;;;;;;5001598;28;20034;-79
2020/12/15 11:19:38;;;;;;;14.75;4.78;;;10.00;93.30;;;;;;4987963;28;20053;-79
2020/12/15 11:22:03;;;;;;;16.52;5.57;;;10.00;93.90;;;;;;5000876;28;20030;-80
2020/12/15 11:24:29;;;;;;;9.52;4.90;;;9.90;93.40;;;;;;5004824;28;20058;-82
2020/12/15 11:26:55;;;;;;;12.20;5.35;;;9.90;93.60;;;;;;4995684;28;20099;-80
2020/12/15 11:29:20;;;;;;;10.43;4.43;;;9.90;93.50;;;;;;4995820;28;20049;-80
2020/12/15 11:31:50;;;;;;;8.55;4.18;;;10.00;93.40;;;;;;4999094;28;20057;-81
2020/12/15 11:34:16;;;;;;;13.85;4.57;;;9.90;94.00;;;;;;5000094;28;20061;-81
2020/12/15 11:36:41;;;;;;;11.45;4.70;;;9.90;95.50;;;;;;5000929;28;20077;-78
2020/12/15 11:39:07;;;;;;;11.27;4.53;;;9.90;94.80;;;;;;5001654;28;20803;-80
2020/12/15 11:41:34;;;;;;;21.63;6.22;;;9.90;94.80;;;;;;4999842;28;20038;-78
2020/12/15 11:44:00;;;;;;;28.80;6.13;;;9.90;95.70;;;;;;4996176;28;20046;-79
2020/12/15 11:46:25;;;;;;;19.63;6.47;;;9.90;95.40;;;;;;4996228;28;20573;-79
2020/12/15 11:48:51;;;;;;;16.55;6.43;;;10.00;95.00;;;;;;4995160;28;20053;-79
2020/12/15 11:51:18;;;;;;;19.48;7.45;;;10.00;94.80;;;;;;4996541;28;20493;-80
2020/12/15 11:53:44;;;;;;;21.88;7.97;;;10.00;95.50;;;;;;5001634;28;20046;-79
2020/12/15 11:56:09;;;;;;;15.98;7.00;;;10.00;96.40;;;;;;4984832;28;20098;-79
2020/12/15 11:58:35;;;;;;;17.55;6.65;;;10.00;99.90;;;;;;5002952;28;20199;-79
2020/12/15 12:01:01;;;;;;;17.65;6.30;;;10.00;99.90;;;;;;5004344;28;20504;-80
2020/12/15 12:03:26;;;;;;;17.23;6.85;;;10.00;99.90;;;;;;5000401;28;20490;-80
2020/12/15 12:05:52;;;;;;;21.30;6.85;;;10.10;99.90;;;;;;5004484;28;20098;-80
2020/12/15 12:08:17;;;;;;;28.60;8.70;;;10.20;99.90;;;;;;4993339;28;20085;-80
2020/12/15 12:10:43;;;;;;;21.50;8.70;;;10.30;98.20;;;;;;4993563;28;20030;-80
2020/12/15 12:13:08;;;;;;;24.17;8.32;;;10.30;97.80;;;;;;4990158;28;20041;-79
2020/12/15 12:15:34;;;;;;;30.88;8.55;;;10.30;96.60;;;;;;4995917;28;20022;-79
2020/12/15 12:17:59;;;;;;;30.35;8.15;;;10.30;96.20;;;;;;4992484;28;20038;-79
2020/12/15 12:20:25;;;;;;;23.05;8.23;;;10.30;96.30;;;;;;4993315;28;20057;-80
2020/12/15 12:22:50;;;;;;;23.23;8.90;;;10.40;96.30;;;;;;4991018;28;20102;-79
2020/12/15 12:25:16;;;;;;;21.85;9.60;;;10.40;96.20;;;;;;5002026;28;20026;-79
2020/12/15 12:27:42;;;;;;;28.92;8.80;;;10.50;96.30;;;;;;4992010;28;20471;-79
2020/12/15 12:30:07;;;;;;;41.22;11.30;;;10.50;96.40;;;;;;4999620;28;20540;-80
2020/12/15 12:32:33;;;;;;;27.73;9.65;;;10.50;97.00;;;;;;5005892;28;20038;-78
2020/12/15 12:34:58;;;;;;;30.42;10.45;;;10.50;96.70;;;;;;4998921;28;20374;-80
2020/12/15 12:37:24;;;;;;;30.33;9.18;;;10.50;96.60;;;;;;4995607;28;20042;-80
2020/12/15 12:39:49;;;;;;;42.20;10.93;;;10.50;96.40;;;;;;4993327;28;20104;-79
2020/12/15 12:42:15;;;;;;;24.17;9.93;;;10.50;96.50;;;;;;4980570;28;20027;-79
2020/12/15 12:44:41;;;;;;;26.52;9.90;;;10.40;96.40;;;;;;5006583;28;20124;-80
2020/12/15 12:47:06;;;;;;;31.88;11.35;;;10.40;96.50;;;;;;5001144;28;20073;-80